Time;durP1;ratioP1;P1;durP2;ratioP2;P2;SDS_P1;SDS_P2;PMS_P1;PMS_P2;Temp;Humidity;BMP_temperature;BMP_pressure;BME280_temperature;BME280_humidity;BME280_pressure;Samples;Min_cycle;Max_cycle;Signal;HPM_P1;HPM_P2
2021/11/19 00:00:00;;;;;;;56.05;25.92;;;;;;;-0.39;94.17;98989.72;5033489;28;20076;-71
2021/11/19 00:02:27;;;;;;;54.28;21.92;;;;;;;-0.36;93.87;98994.84;4982886;28;20468;-70
2021/11/19 00:04:53;;;;;;;57.08;22.25;;;;;;;-0.63;94.19;98949.66;5033621;28;20065;-71
2021/11/19 00:07:19;;;;;;;55.63;21.50;;;;;;;-0.36;94.35;98992.19;4999200;28;20747;-70
2021/11/19 00:09:44;;;;;;;53.20;21.65;;;;;;;-0.34;93.89;98992.91;4999265;28;20477;-72
2021/11/19 00:12:11;;;;;;;55.95;22.55;;;;;;;-0.34;94.00;98992.91;4999834;28;20041;-71
2021/11/19 00:14:37;;;;;;;51.08;21.05;;;;;;;-0.32;93.78;98982.22;5015308;28;20049;-68
2021/11/19 00:17:08;;;;;;;51.80;22.40;;;;;;;-0.31;93.96;98982.09;5031831;28;20058;-70
2021/11/19 00:19:40;;;;;;;50.60;20.42;;;;;;;-0.33;94.01;98970.75;5033029;28;20061;-68
2021/11/19 00:22:08;;;;;;;54.47;22.58;;;;;;;-0.29;93.93;98974.91;5015035;28;20053;-69
2021/11/19 00:24:36;;;;;;;49.90;21.30;;;;;;;-0.33;94.15;98968.09;5015241;28;20061;-74
2021/11/19 00:27:02;;;;;;;51.10;21.15;;;;;;;-0.52;94.02;98919.75;5015205;28;20199;-73
2021/11/19 00:29:28;;;;;;;48.80;19.85;;;;;;;-0.49;93.80;98936.34;5033184;28;20053;-70
2021/11/19 00:31:54;;;;;;;55.38;22.08;;;;;;;-0.26;93.85;98966.75;5015032;28;20534;-69
2021/11/19 00:34:21;;;;;;;49.95;20.33;;;;;;;-0.41;93.58;98941.16;5014790;28;20065;-70
2021/11/19 00:36:47;;;;;;;53.15;21.38;;;;;;;-0.27;94.30;98965.00;5048406;28;20044;-72
2021/11/19 00:39:16;;;;;;;52.13;20.52;;;;;;;-0.25;94.18;98971.09;5016138;28;20065;-71
2021/11/19 00:41:44;;;;;;;54.25;22.92;;;;;;;-0.25;94.67;98965.78;4999378;28;20042;-70
2021/11/19 00:44:11;;;;;;;49.30;20.50;;;;;;;-0.25;94.66;98960.47;5015648;28;20056;-70
2021/11/19 00:46:38;;;;;;;57.70;23.00;;;;;;;-0.29;94.36;98964.28;5016411;28;20050;-71
2021/11/19 00:49:04;;;;;;;51.92;20.77;;;;;;;-0.23;94.54;98951.53;5015581;28;20049;-71
2021/11/19 00:51:33;;;;;;;55.08;22.42;;;;;;;-0.22;94.66;98958.53;5015972;28;20058;-70
2021/11/19 00:54:00;;;;;;;50.63;21.65;;;;;;;-0.21;94.28;98944.34;5034037;28;20057;-73
2021/11/19 00:56:29;;;;;;;51.40;21.52;;;;;;;-0.25;94.78;98931.25;5033768;28;20502;-70
2021/11/19 00:58:55;;;;;;;52.65;22.77;;;;;;;-0.22;94.04;98932.84;5003522;28;20075;-71
2021/11/19 01:01:26;;;;;;;47.38;19.02;;;;;;;-0.16;94.86;98942.22;5001341;28;20057;-72
2021/11/19 01:03:53;;;;;;;47.08;18.88;;;;;;;-0.26;94.16;98926.91;5048952;28;20422;-70
2021/11/19 01:06:19;;;;;;;46.47;20.13;;;;;;;-0.18;94.13;98938.78;5014786;28;20049;-73
2021/11/19 01:08:51;;;;;;;46.85;20.65;;;;;;;-0.21;94.70;98928.41;5013878;28;20060;-72
2021/11/19 01:11:20;;;;;;;51.92;23.27;;;;;;;-0.45;94.31;98883.91;4998255;28;20058;-73
2021/11/19 01:13:48;;;;;;;50.92;20.00;;;;;;;-0.23;95.23;98917.84;5030767;28;20092;-73
2021/11/19 01:16:25;;;;;;;54.42;20.73;;;;;;;-0.13;94.41;98928.72;5014647;28;20057;-70
2021/11/19 01:18:56;;;;;;;46.80;18.10;;;;;;;-0.17;94.24;98919.28;5032315;28;20055;-71
2021/11/19 01:21:32;;;;;;;;;;;;;;;-0.11;94.21;98929.47;4998663;28;20128;-70
2021/11/19 01:24:00;;;;;;;51.65;18.70;;;;;;;-0.15;93.75;98912.03;5014205;28;19921;-71
2021/11/19 01:26:30;;;;;;;49.28;18.45;;;;;;;-0.12;94.19;98930.44;5013946;28;20128;-71
2021/11/19 01:28:59;;;;;;;50.38;19.48;;;;;;;-0.11;94.34;98935.66;5014238;28;20103;-71
2021/11/19 01:31:35;;;;;;;49.33;18.80;;;;;;;-0.07;94.08;98931.00;5013969;28;20294;-70
2021/11/19 01:34:10;;;;;;;51.80;21.70;;;;;;;-0.07;94.74;98936.31;5013971;28;20064;-70
2021/11/19 01:36:54;;;;;;;50.05;19.85;;;;;;;-0.22;94.33;98900.09;5016640;28;20103;-70
2021/11/19 01:39:40;;;;;;;53.42;23.17;;;;;;;-0.08;94.27;98923.94;5013889;28;20053;-71
2021/11/19 01:42:35;;;;;;;48.22;20.58;;;;;;;-0.33;94.68;98888.41;5021093;28;20115;-69
2021/11/19 01:45:12;;;;;;;54.80;22.45;;;;;;;-0.08;93.91;98921.28;5015453;28;20370;-70
2021/11/19 01:47:41;;;;;;;50.40;20.42;;;;;;;-0.25;94.46;98891.41;5030442;28;20050;-70
2021/11/19 01:50:28;;;;;;;46.58;18.98;;;;;;;-0.12;94.55;98906.53;5032505;28;20061;-71
2021/11/19 01:53:12;;;;;;;50.70;19.75;;;;;;;-0.06;94.32;98916.75;5030985;28;20056;-70
2021/11/19 01:55:44;;;;;;;49.83;21.60;;;;;;;-0.04;94.34;98921.00;5014247;28;20149;-70
2021/11/19 01:58:19;;;;;;;49.60;20.60;;;;;;;-0.04;94.01;98920.13;5030217;28;20048;-70
2021/11/19 02:00:53;;;;;;;51.70;22.48;;;;;;;-0.20;94.52;98887.59;4997053;28;20139;-70
2021/11/19 02:03:22;;;;;;;45.47;19.52;;;;;;;-0.23;94.09;98877.16;5013455;28;20057;-72
2021/11/19 02:06:04;;;;;;;49.58;19.90;;;;;;;-0.34;94.83;98860.13;5013701;28;20136;-70
2021/11/19 02:08:38;;;;;;;47.47;19.80;;;;;;;-0.02;94.88;98907.63;4980705;28;20147;-72
2021/11/19 02:11:34;;;;;;;45.42;17.73;;;;;;;-0.01;94.76;98909.31;5029452;28;20057;-71
2021/11/19 02:14:19;;;;;;;47.35;19.02;;;;;;;0.00;94.58;98908.38;5029958;28;20045;-69
2021/11/19 02:16:49;;;;;;;44.95;18.85;;;;;;;0.02;94.25;98909.09;4997732;28;20119;-69
2021/11/19 02:19:19;;;;;;;48.15;18.35;;;;;;;0.03;94.12;98905.47;4999243;28;20100;-69
2021/11/19 02:21:52;;;;;;;;;;;;;;;0.03;94.34;98902.81;4997489;28;20112;-72
2021/11/19 02:24:22;;;;;;;50.90;20.90;;;;;;;0.02;94.02;98918.88;5012707;28;19921;-71
2021/11/19 02:27:02;;;;;;;49.72;20.40;;;;;;;0.03;94.66;98908.13;5046177;28;20053;-71
2021/11/19 02:29:35;;;;;;;44.55;17.85;;;;;;;0.07;94.61;98906.97;5013219;28;20050;-71
2021/11/19 02:32:10;;;;;;;47.35;19.83;;;;;;;-0.03;94.25;98884.66;4997113;28;20119;-71
2021/11/19 02:34:46;;;;;;;52.53;20.85;;;;;;;0.09;94.43;98902.44;5016416;28;20065;-72
2021/11/19 02:37:28;;;;;;;47.47;20.13;;;;;;;0.00;93.97;98887.13;5018210;28;20046;-72
2021/11/19 02:39:58;;;;;;;51.03;20.42;;;;;;;-0.05;94.53;98881.25;5001785;28;20115;-70
2021/11/19 02:42:32;;;;;;;48.22;18.08;;;;;;;0.08;94.83;98898.06;5034417;28;20140;-70
2021/11/19 02:45:03;;;;;;;51.38;19.90;;;;;;;0.02;94.40;98887.84;5000899;28;20056;-70
2021/11/19 02:47:32;;;;;;;57.03;25.90;;;;;;;0.01;94.21;98888.81;5032780;28;20136;-70
2021/11/19 02:49:58;;;;;;;50.88;21.40;;;;;;;0.04;94.17;98895.69;4999384;28;20148;-70
2021/11/19 02:52:32;;;;;;;51.60;20.98;;;;;;;-0.41;95.08;98821.69;5014979;28;20061;-70
2021/11/19 02:55:00;;;;;;;44.45;19.95;;;;;;;0.04;94.37;98895.69;5016321;28;20100;-72
2021/11/19 02:57:28;;;;;;;50.00;21.17;;;;;;;0.07;94.43;98895.50;5016674;28;20201;-72
2021/11/19 02:59:56;;;;;;;46.42;18.65;;;;;;;0.11;94.39;98903.19;5019861;28;20132;-71
2021/11/19 03:02:30;;;;;;;45.92;18.17;;;;;;;0.09;94.46;98886.47;5037935;28;20076;-72
2021/11/19 03:05:07;;;;;;;48.53;19.63;;;;;;;0.10;93.91;98901.47;5021473;28;20053;-70
2021/11/19 03:07:33;;;;;;;47.08;17.40;;;;;;;0.10;94.06;98890.84;5005234;28;20065;-73
2021/11/19 03:10:06;;;;;;;48.60;19.55;;;;;;;0.12;94.80;98894.25;5038535;28;20049;-72
2021/11/19 03:12:34;;;;;;;47.45;18.00;;;;;;;0.14;94.57;98892.31;5005174;28;20423;-68
2021/11/19 03:15:04;;;;;;;46.00;16.65;;;;;;;0.16;94.60;98900.22;5022332;28;20581;-70
2021/11/19 03:17:30;;;;;;;48.63;19.70;;;;;;;0.07;94.33;98885.72;5020813;28;20614;-71
2021/11/19 03:19:57;;;;;;;46.50;20.52;;;;;;;0.12;94.22;98888.94;5016972;28;20064;-70
2021/11/19 03:22:25;;;;;;;50.03;20.48;;;;;;;0.16;94.49;98889.56;5032720;28;20065;-73
2021/11/19 03:24:52;;;;;;;45.47;17.90;;;;;;;-0.05;94.81;98858.19;5016917;28;20100;-71
2021/11/19 03:27:20;;;;;;;42.25;17.42;;;;;;;0.13;94.57;98872.03;5000063;28;20054;-72
2021/11/19 03:29:57;;;;;;;43.50;16.70;;;;;;;-0.35;94.08;98805.34;5048025;28;20060;-71
2021/11/19 03:32:27;;;;;;;46.45;17.73;;;;;;;-0.01;94.25;98850.84;5048990;28;20137;-73
2021/11/19 03:34:54;;;;;;;47.65;19.52;;;;;;;0.14;94.47;98876.38;5016088;28;20053;-70
2021/11/19 03:37:20;;;;;;;44.50;18.00;;;;;;;0.09;94.39;98862.56;5016474;28;20084;-70
2021/11/19 03:39:47;;;;;;;44.42;17.38;;;;;;;0.18;94.60;98869.94;4999716;28;20053;-72
2021/11/19 03:42:15;;;;;;;43.45;16.83;;;;;;;0.02;94.40;98844.50;4999512;28;20084;-73
2021/11/19 03:44:55;;;;;;;51.85;22.13;;;;;;;0.08;94.44;98855.56;4999868;28;20123;-72
2021/11/19 03:47:25;;;;;;;41.00;16.48;;;;;;;0.19;94.62;98868.13;5000090;28;20052;-71
2021/11/19 03:49:53;;;;;;;40.47;16.48;;;;;;;0.22;94.22;98863.44;5048991;28;20553;-73
2021/11/19 03:52:29;;;;;;;50.88;18.92;;;;;;;0.14;94.45;98857.78;5033821;28;20257;-72
2021/11/19 03:54:57;;;;;;;46.80;17.50;;;;;;;0.17;94.07;98844.28;5015898;28;20097;-73
2021/11/19 03:57:24;;;;;;;49.83;19.65;;;;;;;0.08;94.22;98828.13;5000068;28;20136;-72
2021/11/19 03:59:51;;;;;;;49.88;18.80;;;;;;;0.24;93.99;98856.19;5016778;28;20141;-72
2021/11/19 04:02:20;;;;;;;45.10;18.45;;;;;;;0.23;94.25;98857.16;5015661;28;20103;-70
2021/11/19 04:04:46;;;;;;;44.95;18.23;;;;;;;0.25;94.29;98857.03;5015994;28;20164;-71
2021/11/19 04:07:14;;;;;;;47.90;16.30;;;;;;;0.10;93.91;98827.06;4999376;28;20132;-73
2021/11/19 04:09:44;;;;;;;44.97;16.27;;;;;;;0.29;94.39;98852.34;5016659;28;20085;-72
2021/11/19 04:12:13;;;;;;;45.03;16.95;;;;;;;0.33;94.14;98859.16;4983500;28;20514;-73
2021/11/19 04:14:39;;;;;;;42.85;15.95;;;;;;;0.26;93.97;98863.19;5015902;28;20065;-73
2021/11/19 04:17:06;;;;;;;46.33;16.20;;;;;;;0.26;94.34;98852.56;5033063;28;20115;-71
2021/11/19 04:19:32;;;;;;;46.42;17.23;;;;;;;0.22;94.20;98851.97;4999229;28;20107;-73
2021/11/19 04:22:03;;;;;;;44.10;16.95;;;;;;;0.26;94.55;98857.88;5048954;28;20052;-73
2021/11/19 04:24:34;;;;;;;40.67;17.45;;;;;;;-0.06;94.34;98807.81;5016174;28;20101;-74
2021/11/19 04:27:05;;;;;;;48.30;18.10;;;;;;;-0.02;94.40;98806.66;5033431;28;20095;-75
2021/11/19 04:29:46;;;;;;;;;;;;;;;0.28;93.95;98863.97;5016276;28;20057;-73
2021/11/19 04:32:22;;;;;;;50.95;17.30;;;;;;;0.26;94.59;98857.88;4983217;28;20339;-72
2021/11/19 04:34:49;;;;;;;44.97;18.23;;;;;;;0.24;94.54;98868.63;4983275;28;20050;-73
2021/11/19 04:37:15;;;;;;;50.65;20.73;;;;;;;0.23;94.86;98864.28;5015327;28;20064;-73
2021/11/19 04:39:41;;;;;;;50.97;17.88;;;;;;;0.26;94.37;98864.06;4984964;28;20053;-72
2021/11/19 04:42:08;;;;;;;50.53;18.30;;;;;;;-0.01;94.71;98816.31;4984988;28;20080;-74
2021/11/19 04:44:35;;;;;;;48.78;18.05;;;;;;;0.13;95.47;98842.78;5017377;28;20077;-72
2021/11/19 04:47:01;;;;;;;49.22;18.52;;;;;;;-0.02;94.97;98830.56;5017038;28;20148;-73
2021/11/19 04:49:27;;;;;;;53.33;21.02;;;;;;;0.01;95.33;98817.06;5049708;28;20049;-73
2021/11/19 04:51:53;;;;;;;50.05;22.02;;;;;;;0.17;95.43;98852.25;4983724;28;20057;-73
2021/11/19 04:54:23;;;;;;;49.63;18.60;;;;;;;0.15;95.35;98840.91;4982095;28;20152;-74
2021/11/19 04:56:51;;;;;;;46.80;17.52;;;;;;;0.01;94.98;98817.06;5015382;28;20151;-72
2021/11/19 04:59:19;;;;;;;43.67;15.68;;;;;;;0.31;94.82;98872.56;5014758;28;20057;-72
2021/11/19 05:01:47;;;;;;;46.05;15.68;;;;;;;0.35;95.11;98868.75;5012042;28;20048;-72
2021/11/19 05:04:37;;;;;;;44.35;16.38;;;;;;;0.29;95.35;98865.66;5005606;28;20068;-75
2021/11/19 05:07:03;;;;;;;47.97;18.77;;;;;;;0.31;95.86;98872.56;5054584;28;20052;-71
2021/11/19 05:09:30;;;;;;;50.47;18.95;;;;;;;0.23;95.52;98859.81;5031477;28;20080;-73
2021/11/19 05:12:06;;;;;;;45.20;16.65;;;;;;;0.30;95.50;98872.69;5035198;28;20095;-74
2021/11/19 05:14:34;;;;;;;46.53;15.20;;;;;;;0.33;95.27;98878.66;5002621;28;20095;-74
2021/11/19 05:17:02;;;;;;;45.45;17.48;;;;;;;0.31;95.51;98872.56;5035525;28;20507;-74
2021/11/19 05:19:29;;;;;;;48.53;18.73;;;;;;;0.34;95.79;98876.84;5035018;28;20579;-73
2021/11/19 05:21:55;;;;;;;48.22;19.08;;;;;;;0.32;95.33;98868.09;5035424;28;20086;-73
2021/11/19 05:24:21;;;;;;;47.45;16.40;;;;;;;0.16;95.40;98845.25;5005023;28;20060;-73
2021/11/19 05:26:48;;;;;;;46.03;17.10;;;;;;;0.38;94.97;98883.63;5038921;28;20057;-74
2021/11/19 05:29:17;;;;;;;53.35;19.10;;;;;;;0.36;95.60;98881.06;5017242;28;20132;-73
2021/11/19 05:31:45;;;;;;;49.30;17.48;;;;;;;0.43;95.34;98886.81;4995308;28;20049;-75
2021/11/19 05:34:12;;;;;;;50.47;18.25;;;;;;;0.36;95.48;98872.25;4985968;28;20140;-75
2021/11/19 05:36:38;;;;;;;50.25;17.85;;;;;;;0.26;95.33;98857.88;5001036;28;20050;-77
2021/11/19 05:39:05;;;;;;;49.13;18.92;;;;;;;0.39;95.21;98880.84;5030691;28;20132;-75
2021/11/19 05:41:33;;;;;;;45.78;16.63;;;;;;;0.13;95.19;98834.81;4999298;28;20061;-72
2021/11/19 05:43:59;;;;;;;49.38;17.95;;;;;;;0.37;96.11;98873.97;4976249;28;20049;-76
2021/11/19 05:46:42;;;;;;;46.90;18.02;;;;;;;0.40;95.47;98871.94;5025659;28;20060;-74
2021/11/19 05:49:17;;;;;;;45.40;17.92;;;;;;;0.44;95.61;98883.22;4999437;28;20049;-74
2021/11/19 05:51:46;;;;;;;44.35;15.65;;;;;;;0.21;96.12;98845.75;4985271;28;20056;-74
2021/11/19 05:54:14;;;;;;;49.63;19.55;;;;;;;0.42;95.47;98879.81;4972759;28;20046;-74
2021/11/19 05:56:40;;;;;;;52.78;18.90;;;;;;;0.45;95.33;98890.22;5013999;28;20081;-74
2021/11/19 05:59:07;;;;;;;51.33;18.55;;;;;;;0.40;95.65;98873.72;5001087;28;20041;-75
2021/11/19 06:02:08;;;;;;;45.85;17.98;;;;;;;0.48;95.20;98884.72;5008297;28;20549;-74
2021/11/19 06:04:47;;;;;;;45.85;16.98;;;;;;;0.33;95.89;98853.84;5012495;28;20045;-74
2021/11/19 06:07:32;;;;;;;48.22;17.38;;;;;;;0.51;95.62;98878.31;4992223;28;20099;-73
2021/11/19 06:09:59;;;;;;;41.55;15.95;;;;;;;0.32;95.49;98841.53;5010558;28;20696;-74
2021/11/19 06:12:30;;;;;;;48.83;17.67;;;;;;;0.53;95.58;98877.25;4982458;28;20140;-73
2021/11/19 06:14:59;;;;;;;49.28;17.55;;;;;;;0.40;95.13;98855.13;4989355;28;20053;-74
2021/11/19 06:17:37;;;;;;;47.10;17.27;;;;;;;0.51;95.78;98859.69;5018220;28;20171;-73
2021/11/19 06:20:26;;;;;;;51.08;16.35;;;;;;;0.54;95.87;98867.47;5012652;28;20057;-74
2021/11/19 06:23:04;;;;;;;52.35;18.20;;;;;;;0.50;95.71;98866.81;5014705;28;20094;-74
2021/11/19 06:25:34;;;;;;;53.78;18.85;;;;;;;0.53;96.21;98866.63;5030398;28;20053;-75
2021/11/19 06:28:03;;;;;;;47.72;16.50;;;;;;;0.43;95.87;98845.13;5029749;28;20053;-75
2021/11/19 06:30:30;;;;;;;42.40;17.55;;;;;;;0.54;95.64;98868.31;4996747;28;20049;-72
2021/11/19 06:32:57;;;;;;;45.30;17.90;;;;;;;0.48;96.17;98839.50;5011750;28;20100;-74
2021/11/19 06:35:24;;;;;;;47.80;17.23;;;;;;;0.40;95.72;98823.22;5028763;28;20058;-74
2021/11/19 06:37:50;;;;;;;44.17;15.45;;;;;;;0.55;95.80;98843.44;5032800;28;20058;-74
2021/11/19 06:40:26;;;;;;;44.75;14.98;;;;;;;0.29;94.96;98786.75;5013761;28;20581;-75
2021/11/19 06:43:11;;;;;;;48.47;17.85;;;;;;;0.66;95.02;98856.81;5012254;28;20140;-76
2021/11/19 06:46:11;;;;;;;48.38;16.05;;;;;;;0.68;95.46;98854.03;4962935;28;20049;-73
2021/11/19 06:49:00;;;;;;;44.15;15.75;;;;;;;0.68;95.27;98849.56;5041461;28;20486;-74
2021/11/19 06:51:31;;;;;;;43.60;15.48;;;;;;;0.68;95.06;98851.38;5013573;28;20073;-74
2021/11/19 06:54:14;;;;;;;50.75;18.13;;;;;;;0.73;94.91;98854.56;4997169;28;20093;-73
2021/11/19 06:57:13;;;;;;;47.90;16.85;;;;;;;0.52;95.56;98826.84;4995571;28;20049;-74
2021/11/19 06:59:42;;;;;;;45.85;14.73;;;;;;;0.71;95.32;98852.03;4995199;28;20084;-74
2021/11/19 07:02:08;;;;;;;40.92;15.35;;;;;;;0.70;94.89;98837.03;5029675;28;20076;-74
2021/11/19 07:04:35;;;;;;;46.63;16.38;;;;;;;0.59;95.22;98826.31;5000354;28;20124;-73
2021/11/19 07:07:01;;;;;;;45.78;16.77;;;;;;;0.72;94.87;98850.19;4997136;28;20478;-75
2021/11/19 07:09:27;;;;;;;48.00;16.77;;;;;;;0.70;95.40;98846.81;4999184;28;20053;-74
2021/11/19 07:11:55;;;;;;;43.75;15.70;;;;;;;0.56;94.87;98818.53;4998994;28;20135;-74
2021/11/19 07:14:29;;;;;;;41.60;15.98;;;;;;;0.85;94.68;98855.50;5009921;28;20046;-73
2021/11/19 07:16:55;;;;;;;43.10;16.55;;;;;;;0.72;94.62;98827.09;5012862;28;20061;-74
2021/11/19 07:19:23;;;;;;;41.53;16.85;;;;;;;0.62;94.20;98811.91;5000906;28;20041;-73
2021/11/19 07:21:53;;;;;;;46.65;16.95;;;;;;;0.61;94.26;98815.53;5028180;28;20061;-74
2021/11/19 07:24:20;;;;;;;39.72;13.77;;;;;;;0.87;94.86;98853.56;5012792;28;20460;-74
2021/11/19 07:26:46;;;;;;;43.10;16.88;;;;;;;0.89;94.25;98860.50;5011123;28;20523;-74
2021/11/19 07:29:12;;;;;;;43.33;15.95;;;;;;;0.75;94.62;98828.72;4996125;28;20076;-74
2021/11/19 07:31:57;;;;;;;35.08;14.50;;;;;;;0.88;94.23;98849.97;5021567;28;20100;-74
2021/11/19 07:34:52;;;;;;;40.38;14.90;;;;;;;0.91;94.77;98845.25;5012782;28;20048;-74
2021/11/19 07:37:54;;;;;;;42.83;15.45;;;;;;;0.83;94.64;98826.34;5022005;28;20049;-75
2021/11/19 07:40:36;;;;;;;42.85;16.25;;;;;;;0.95;94.30;98835.25;5050259;28;20045;-74
2021/11/19 07:43:30;;;;;;;43.20;15.10;;;;;;;0.98;94.19;98834.19;5030773;28;20057;-75
2021/11/19 07:46:16;;;;;;;46.58;16.98;;;;;;;0.79;94.46;98802.75;5027612;28;20453;-75
2021/11/19 07:48:54;;;;;;;39.22;15.43;;;;;;;0.96;93.90;98832.50;5071110;28;20060;-75
2021/11/19 07:51:28;;;;;;;42.45;15.38;;;;;;;0.98;93.42;98819.06;5054036;28;20484;-74
2021/11/19 07:53:54;;;;;;;39.55;16.88;;;;;;;1.08;93.32;98828.09;5017238;28;20064;-75
2021/11/19 07:56:29;;;;;;;38.05;14.55;;;;;;;1.01;93.50;98824.16;5052128;28;20122;-76
2021/11/19 07:58:58;;;;;;;34.17;14.98;;;;;;;0.91;93.73;98807.16;5038028;28;20052;-76
2021/11/19 08:01:24;;;;;;;45.58;16.40;;;;;;;0.85;93.61;98791.66;5004831;28;20057;-76
2021/11/19 08:03:50;;;;;;;41.10;16.02;;;;;;;1.02;93.78;98809.03;5036450;28;20053;-76
2021/11/19 08:06:16;;;;;;;39.15;16.17;;;;;;;1.10;93.36;98823.50;5037494;28;20205;-76
2021/11/19 08:08:49;;;;;;;30.48;12.77;;;;;;;1.14;93.39;98834.78;5046728;28;20049;-76
2021/11/19 08:11:19;;;;;;;37.17;13.90;;;;;;;0.98;92.86;98797.78;5020082;28;20061;-76
2021/11/19 08:13:46;;;;;;;37.25;14.05;;;;;;;1.16;92.48;98833.69;5018823;28;20049;-75
2021/11/19 08:16:13;;;;;;;38.45;14.80;;;;;;;1.12;92.91;98821.56;5036459;28;20049;-75
2021/11/19 08:18:59;;;;;;;35.42;12.98;;;;;;;1.08;92.82;98798.81;5038917;28;20120;-75
2021/11/19 08:21:27;;;;;;;40.90;15.60;;;;;;;1.20;92.11;98803.22;5051817;28;20048;-73
2021/11/19 08:23:57;;;;;;;36.88;14.63;;;;;;;1.18;92.21;98799.84;5037454;28;20065;-74
2021/11/19 08:26:38;;;;;;;41.75;16.08;;;;;;;1.26;93.00;98807.25;5066278;28;20442;-74
2021/11/19 08:29:07;;;;;;;35.03;13.68;;;;;;;1.08;92.03;98785.50;5068689;28;20088;-74
2021/11/19 08:31:33;;;;;;;39.15;14.00;;;;;;;1.22;92.21;98810.25;5035289;28;20444;-74
2021/11/19 08:33:58;;;;;;;37.80;12.98;;;;;;;1.04;91.83;98786.69;5017872;28;20049;-75
2021/11/19 08:36:27;;;;;;;39.92;15.82;;;;;;;1.11;92.30;98790.59;5034430;28;20049;-74
2021/11/19 08:38:53;;;;;;;33.20;12.95;;;;;;;1.23;92.05;98812.78;5036027;28;20048;-73
2021/11/19 08:41:20;;;;;;;36.25;14.65;;;;;;;1.17;92.36;98802.59;5052775;28;20129;-74
2021/11/19 08:43:48;;;;;;;37.30;16.70;;;;;;;1.14;92.43;98803.69;5009339;28;20053;-74
2021/11/19 08:46:35;;;;;;;40.85;13.35;;;;;;;1.23;91.91;98801.31;5033930;28;20052;-74
2021/11/19 08:49:04;;;;;;;30.70;13.63;;;;;;;1.27;91.78;98794.78;5035190;28;20085;-74
2021/11/19 08:51:30;;;;;;;34.60;12.90;;;;;;;1.34;91.32;98793.38;5036354;28;20064;-75
2021/11/19 08:54:00;;;;;;;31.35;13.60;;;;;;;1.44;90.58;98802.38;5034989;28;20056;-74
2021/11/19 08:56:27;;;;;;;36.80;14.38;;;;;;;1.41;91.23;98789.28;5018005;28;20057;-73
2021/11/19 08:58:53;;;;;;;35.90;12.48;;;;;;;1.51;90.90;98792.97;5034268;28;20075;-74
2021/11/19 09:01:20;;;;;;;31.45;12.02;;;;;;;1.45;90.73;98796.91;5034518;28;20057;-73
2021/11/19 09:03:47;;;;;;;34.10;12.07;;;;;;;1.45;90.31;98788.94;5052157;28;20061;-74
2021/11/19 09:06:15;;;;;;;32.72;13.68;;;;;;;1.46;90.35;98787.13;5051653;28;20504;-75
2021/11/19 09:08:42;;;;;;;35.50;13.32;;;;;;;1.47;90.11;98780.00;5049891;28;20522;-74
2021/11/19 09:11:10;;;;;;;33.15;14.60;;;;;;;1.48;90.24;98771.88;5034603;28;20425;-74
2021/11/19 09:13:37;;;;;;;35.38;14.02;;;;;;;1.52;90.03;98776.00;5030290;28;20052;-74
2021/11/19 09:16:06;;;;;;;35.35;13.15;;;;;;;1.58;89.63;98785.38;5033901;28;20430;-74
2021/11/19 09:18:53;;;;;;;31.05;13.07;;;;;;;1.27;90.14;98728.22;5050204;28;20055;-74
2021/11/19 09:21:25;;;;;;;33.97;13.35;;;;;;;1.56;89.94;98768.63;5050249;28;20102;-75
2021/11/19 09:23:55;;;;;;;28.67;11.50;;;;;;;1.56;90.05;98750.84;5035276;28;20049;-75
2021/11/19 09:26:55;;;;;;;31.52;12.55;;;;;;;1.52;89.62;98752.03;5016210;28;20049;-74
2021/11/19 09:29:28;;;;;;;35.13;13.80;;;;;;;1.58;89.82;98764.91;5001262;28;20418;-74
2021/11/19 09:31:54;;;;;;;37.85;14.48;;;;;;;0.95;90.11;98664.94;5019162;28;20052;-74
2021/11/19 09:34:21;;;;;;;33.40;13.40;;;;;;;1.35;89.94;98728.50;5055326;28;20470;-74
2021/11/19 09:36:47;;;;;;;42.78;16.35;;;;;;;1.45;90.26;98748.97;5041023;28;20136;-74
2021/11/19 09:39:16;;;;;;;38.60;14.43;;;;;;;1.51;90.34;98747.69;5034341;28;20060;-73
2021/11/19 09:41:50;;;;;;;32.30;13.18;;;;;;;1.50;89.92;98743.34;5065587;28;20045;-76
2021/11/19 09:44:55;;;;;;;36.42;13.50;;;;;;;1.58;90.55;98748.91;5045494;28;20067;-74
2021/11/19 09:47:42;;;;;;;34.80;12.45;;;;;;;1.53;89.69;98740.41;5014709;28;20053;-75
2021/11/19 09:50:45;;;;;;;29.83;12.70;;;;;;;1.55;90.39;98741.16;5032131;28;20057;-76
2021/11/19 09:53:42;;;;;;;31.00;12.63;;;;;;;1.50;90.07;98729.13;5009088;28;20076;-72
2021/11/19 09:56:19;;;;;;;33.67;12.45;;;;;;;1.55;90.49;98730.50;5011777;28;20044;-74
2021/11/19 09:59:11;;;;;;;35.35;15.30;;;;;;;1.51;89.80;98731.72;5023109;28;20068;-73
2021/11/19 10:01:46;;;;;;;33.90;12.55;;;;;;;1.57;90.15;98725.91;5054433;28;20045;-74
2021/11/19 10:04:50;;;;;;;39.25;12.50;;;;;;;1.58;89.92;98724.94;5035939;28;20059;-72
2021/11/19 10:07:35;;;;;;;28.00;11.23;;;;;;;1.38;89.86;98683.00;5031599;28;20294;-74
2021/11/19 10:10:20;;;;;;;36.35;13.45;;;;;;;1.37;89.46;98686.63;5019548;28;20617;-74
2021/11/19 10:13:13;;;;;;;32.63;14.15;;;;;;;1.43;89.74;98696.81;5053903;28;20044;-75
2021/11/19 10:15:49;;;;;;;32.70;12.55;;;;;;;1.52;90.20;98700.59;5019547;28;20203;-75
2021/11/19 10:18:27;;;;;;;31.52;12.15;;;;;;;1.52;90.12;98701.44;5037847;28;20053;-75
2021/11/19 10:21:06;;;;;;;35.75;12.77;;;;;;;1.55;89.74;98706.53;5040296;28;20041;-74
2021/11/19 10:23:45;;;;;;;30.27;11.18;;;;;;;1.55;89.95;98695.88;5029411;28;20057;-74
2021/11/19 10:26:11;;;;;;;31.58;13.13;;;;;;;1.59;89.34;98697.34;5021061;28;20049;-74
2021/11/19 10:28:51;;;;;;;34.58;15.43;;;;;;;1.52;89.83;98690.78;5022742;28;20148;-76
2021/11/19 10:31:20;;;;;;;30.38;11.50;;;;;;;1.55;89.95;98690.56;5020854;28;20138;-75
2021/11/19 10:34:22;;;;;;;34.63;15.00;;;;;;;1.45;90.38;98676.25;5040643;28;21373;-75
2021/11/19 10:37:26;;;;;;;32.13;13.70;;;;;;;1.50;90.38;98679.41;5016742;28;20053;-75
2021/11/19 10:40:23;;;;;;;34.88;12.45;;;;;;;1.54;90.49;98675.53;5022723;28;20132;-74
2021/11/19 10:43:20;;;;;;;33.72;13.63;;;;;;;1.56;90.24;98670.09;5039314;28;20060;-76
2021/11/19 10:46:14;;;;;;;31.27;14.57;;;;;;;1.52;90.03;98666.81;5023162;28;20077;-71
2021/11/19 10:49:15;;;;;;;35.97;14.07;;;;;;;1.49;90.29;98664.38;5028715;28;20051;-74
2021/11/19 10:51:41;;;;;;;32.08;11.82;;;;;;;1.52;90.05;98664.16;5023300;28;20064;-74
2021/11/19 10:54:37;;;;;;;31.60;12.85;;;;;;;1.56;90.13;98670.94;5041248;28;20045;-71
2021/11/19 10:57:34;;;;;;;34.47;15.10;;;;;;;1.56;89.81;98662.94;5010053;28;20056;-70
2021/11/19 11:00:04;;;;;;;29.85;11.35;;;;;;;1.39;89.74;98626.09;5006353;28;20044;-67
2021/11/19 11:02:56;;;;;;;28.08;11.57;;;;;;;1.58;89.91;98653.03;5040059;28;20041;-68
2021/11/19 11:05:37;;;;;;;75.35;42.85;;;;;;;1.60;89.67;98655.56;5020905;28;20122;-73
2021/11/19 11:08:23;;;;;;;32.65;12.35;;;;;;;1.63;90.50;98656.16;5041976;28;20296;-71
2021/11/19 11:10:53;;;;;;;33.80;15.25;;;;;;;1.57;90.04;98656.66;5029731;28;20447;-71
2021/11/19 11:13:43;;;;;;;32.83;11.88;;;;;;;1.58;90.21;98660.19;4982896;28;20498;-71
2021/11/19 11:16:18;;;;;;;30.08;11.90;;;;;;;1.58;90.31;98661.03;5040782;28;20056;-72
2021/11/19 11:18:44;;;;;;;31.88;13.80;;;;;;;1.36;89.79;98627.22;5046705;28;20105;-71
2021/11/19 11:21:21;;;;;;;29.35;12.07;;;;;;;1.29;89.90;98606.50;5067426;28;20477;-71
2021/11/19 11:23:47;;;;;;;35.97;13.55;;;;;;;1.55;90.50;98653.25;5054121;28;20080;-71
2021/11/19 11:26:38;;;;;;;31.80;13.23;;;;;;;1.54;90.40;98646.25;5051738;28;20143;-71
2021/11/19 11:29:16;;;;;;;31.42;12.40;;;;;;;1.51;90.33;98643.81;5035235;28;20072;-72
2021/11/19 11:32:16;;;;;;;29.52;11.70;;;;;;;1.56;90.22;98649.63;5042940;28;20084;-71
2021/11/19 11:34:44;;;;;;;28.02;10.27;;;;;;;1.58;90.24;98647.69;5030097;28;20071;-70
2021/11/19 11:37:13;;;;;;;32.63;12.30;;;;;;;1.58;90.22;98647.69;5055156;28;20133;-71
2021/11/19 11:39:41;;;;;;;28.25;11.05;;;;;;;1.61;89.79;98652.78;5020235;28;20144;-71
2021/11/19 11:42:20;;;;;;;30.85;11.80;;;;;;;1.59;90.29;98644.06;5019962;28;20060;-72
2021/11/19 11:44:49;;;;;;;28.48;10.88;;;;;;;1.54;89.74;98630.28;5048106;28;20072;-71
2021/11/19 11:47:30;;;;;;;35.63;14.10;;;;;;;1.59;89.74;98638.72;5034280;28;20133;-72
2021/11/19 11:50:16;;;;;;;29.38;11.10;;;;;;;1.60;89.88;98637.75;5049557;28;20049;-72
2021/11/19 11:52:43;;;;;;;33.75;13.20;;;;;;;1.61;89.86;98636.81;5032468;28;20060;-72